sensor_id;sensor_type;location;lat;lon;timestamp;P1;durP1;ratioP1;P2;durP2;ratioP2
4112;SDS011;2070;51.042;7.056;2022-11-20T00:00:36;24.13;;;9.73;;
4112;SDS011;2070;51.042;7.056;2022-11-20T00:03:01;23.50;;;10.33;;
4112;SDS011;2070;51.042;7.056;2022-11-20T00:05:27;26.40;;;9.63;;
4112;SDS011;2070;51.042;7.056;2022-11-20T00:07:52;18.10;;;9.50;;
4112;SDS011;2070;51.042;7.056;2022-11-20T00:10:17;21.70;;;10.87;;
4112;SDS011;2070;51.042;7.056;2022-11-20T00:12:42;18.43;;;10.80;;
4112;SDS011;2070;51.042;7.056;2022-11-20T00:15:07;16.03;;;8.40;;
4112;SDS011;2070;51.042;7.056;2022-11-20T00:17:33;15.77;;;9.00;;
4112;SDS011;2070;51.042;7.056;2022-11-20T00:19:58;23.00;;;11.33;;
4112;SDS011;2070;51.042;7.056;2022-11-20T00:22:23;16.73;;;8.37;;
4112;SDS011;2070;51.042;7.056;2022-11-20T00:24:48;17.70;;;8.70;;
4112;SDS011;2070;51.042;7.056;2022-11-20T00:27:13;16.43;;;8.23;;
4112;SDS011;2070;51.042;7.056;2022-11-20T00:29:39;14.77;;;8.77;;
4112;SDS011;2070;51.042;7.056;2022-11-20T00:32:04;20.73;;;10.10;;
4112;SDS011;2070;51.042;7.056;2022-11-20T00:34:29;17.50;;;8.30;;
4112;SDS011;2070;51.042;7.056;2022-11-20T00:36:54;23.33;;;9.80;;
4112;SDS011;2070;51.042;7.056;2022-11-20T00:39:19;15.30;;;8.73;;
4112;SDS011;2070;51.042;7.056;2022-11-20T00:41:44;15.90;;;9.40;;
4112;SDS011;2070;51.042;7.056;2022-11-20T00:44:10;15.80;;;8.57;;
4112;SDS011;2070;51.042;7.056;2022-11-20T00:46:35;14.10;;;8.90;;
4112;SDS011;2070;51.042;7.056;2022-11-20T00:49:00;17.77;;;9.20;;
4112;SDS011;2070;51.042;7.056;2022-11-20T00:51:26;13.97;;;9.27;;
4112;SDS011;2070;51.042;7.056;2022-11-20T00:53:51;18.43;;;9.33;;
4112;SDS011;2070;51.042;7.056;2022-11-20T00:56:17;18.47;;;8.70;;
4112;SDS011;2070;51.042;7.056;2022-11-20T00:58:43;18.20;;;9.03;;
4112;SDS011;2070;51.042;7.056;2022-11-20T01:01:10;19.20;;;9.90;;
4112;SDS011;2070;51.042;7.056;2022-11-20T01:03:36;22.00;;;8.60;;
4112;SDS011;2070;51.042;7.056;2022-11-20T01:06:03;14.30;;;10.10;;
4112;SDS011;2070;51.042;7.056;2022-11-20T01:08:32;15.73;;;8.13;;
4112;SDS011;2070;51.042;7.056;2022-11-20T01:11:00;21.50;;;10.20;;
4112;SDS011;2070;51.042;7.056;2022-11-20T01:13:26;16.67;;;8.83;;
4112;SDS011;2070;51.042;7.056;2022-11-20T01:16:08;16.23;;;8.87;;
4112;SDS011;2070;51.042;7.056;2022-11-20T01:18:34;23.57;;;10.80;;
4112;SDS011;2070;51.042;7.056;2022-11-20T01:21:00;17.50;;;8.03;;
4112;SDS011;2070;51.042;7.056;2022-11-20T01:23:29;17.47;;;9.37;;
4112;SDS011;2070;51.042;7.056;2022-11-20T01:25:54;14.90;;;8.20;;
4112;SDS011;2070;51.042;7.056;2022-11-20T01:28:19;17.90;;;8.37;;
4112;SDS011;2070;51.042;7.056;2022-11-20T01:30:45;15.60;;;8.10;;
4112;SDS011;2070;51.042;7.056;2022-11-20T01:33:10;23.80;;;11.50;;
4112;SDS011;2070;51.042;7.056;2022-11-20T01:35:35;16.23;;;8.83;;
4112;SDS011;2070;51.042;7.056;2022-11-20T01:38:00;18.87;;;9.23;;
4112;SDS011;2070;51.042;7.056;2022-11-20T01:40:25;16.47;;;9.77;;
4112;SDS011;2070;51.042;7.056;2022-11-20T01:42:53;14.83;;;8.40;;
4112;SDS011;2070;51.042;7.056;2022-11-20T01:46:21;16.60;;;9.70;;
4112;SDS011;2070;51.042;7.056;2022-11-20T01:51:16;21.30;;;10.80;;
4112;SDS011;2070;51.042;7.056;2022-11-20T01:53:43;18.90;;;9.20;;
4112;SDS011;2070;51.042;7.056;2022-11-20T01:56:09;23.73;;;10.60;;
4112;SDS011;2070;51.042;7.056;2022-11-20T01:58:35;18.80;;;10.03;;
4112;SDS011;2070;51.042;7.056;2022-11-20T02:01:02;27.00;;;10.73;;
4112;SDS011;2070;51.042;7.056;2022-11-20T02:03:28;22.33;;;8.70;;
4112;SDS011;2070;51.042;7.056;2022-11-20T02:08:28;18.00;;;9.60;;
4112;SDS011;2070;51.042;7.056;2022-11-20T02:10:53;22.43;;;10.60;;
4112;SDS011;2070;51.042;7.056;2022-11-20T02:13:18;28.30;;;10.27;;
4112;SDS011;2070;51.042;7.056;2022-11-20T02:16:02;17.53;;;9.37;;
4112;SDS011;2070;51.042;7.056;2022-11-20T02:18:28;19.40;;;8.70;;
4112;SDS011;2070;51.042;7.056;2022-11-20T02:20:54;18.93;;;9.10;;
4112;SDS011;2070;51.042;7.056;2022-11-20T02:25:46;16.20;;;9.70;;
4112;SDS011;2070;51.042;7.056;2022-11-20T02:28:12;12.57;;;7.83;;
4112;SDS011;2070;51.042;7.056;2022-11-20T02:30:37;18.13;;;8.60;;
4112;SDS011;2070;51.042;7.056;2022-11-20T02:33:02;17.70;;;9.43;;
4112;SDS011;2070;51.042;7.056;2022-11-20T02:37:54;14.30;;;9.03;;
4112;SDS011;2070;51.042;7.056;2022-11-20T02:40:19;18.70;;;8.47;;
4112;SDS011;2070;51.042;7.056;2022-11-20T02:42:45;16.53;;;9.50;;
4112;SDS011;2070;51.042;7.056;2022-11-20T02:45:13;15.00;;;9.13;;
4112;SDS011;2070;51.042;7.056;2022-11-20T02:47:39;15.87;;;8.87;;
4112;SDS011;2070;51.042;7.056;2022-11-20T02:50:06;18.23;;;8.97;;
4112;SDS011;2070;51.042;7.056;2022-11-20T02:52:31;18.53;;;9.97;;
4112;SDS011;2070;51.042;7.056;2022-11-20T02:54:56;20.20;;;10.17;;
4112;SDS011;2070;51.042;7.056;2022-11-20T02:57:21;24.20;;;9.77;;
4112;SDS011;2070;51.042;7.056;2022-11-20T02:59:47;17.87;;;8.40;;
4112;SDS011;2070;51.042;7.056;2022-11-20T03:02:12;18.80;;;9.13;;
4112;SDS011;2070;51.042;7.056;2022-11-20T03:04:37;14.67;;;8.77;;
4112;SDS011;2070;51.042;7.056;2022-11-20T03:07:02;18.07;;;9.90;;
4112;SDS011;2070;51.042;7.056;2022-11-20T03:09:28;16.27;;;10.70;;
4112;SDS011;2070;51.042;7.056;2022-11-20T03:11:53;16.67;;;9.70;;
4112;SDS011;2070;51.042;7.056;2022-11-20T03:14:18;24.73;;;9.63;;
4112;SDS011;2070;51.042;7.056;2022-11-20T03:16:43;21.90;;;9.53;;
4112;SDS011;2070;51.042;7.056;2022-11-20T03:19:09;19.80;;;10.80;;
4112;SDS011;2070;51.042;7.056;2022-11-20T03:21:34;18.20;;;9.50;;
4112;SDS011;2070;51.042;7.056;2022-11-20T03:23:59;15.67;;;9.23;;
4112;SDS011;2070;51.042;7.056;2022-11-20T03:26:25;17.87;;;9.23;;
4112;SDS011;2070;51.042;7.056;2022-11-20T03:28:51;17.37;;;8.90;;
4112;SDS011;2070;51.042;7.056;2022-11-20T03:31:18;19.00;;;10.67;;
4112;SDS011;2070;51.042;7.056;2022-11-20T03:33:43;18.13;;;9.30;;
4112;SDS011;2070;51.042;7.056;2022-11-20T03:36:10;14.33;;;8.30;;
4112;SDS011;2070;51.042;7.056;2022-11-20T03:38:36;18.00;;;9.53;;
4112;SDS011;2070;51.042;7.056;2022-11-20T03:41:02;20.03;;;9.00;;
4112;SDS011;2070;51.042;7.056;2022-11-20T03:43:28;18.13;;;9.30;;
4112;SDS011;2070;51.042;7.056;2022-11-20T03:45:53;24.90;;;9.67;;
4112;SDS011;2070;51.042;7.056;2022-11-20T03:48:18;16.13;;;9.33;;
4112;SDS011;2070;51.042;7.056;2022-11-20T03:50:43;16.83;;;9.23;;
4112;SDS011;2070;51.042;7.056;2022-11-20T03:53:09;15.20;;;9.20;;
4112;SDS011;2070;51.042;7.056;2022-11-20T03:55:34;19.43;;;9.60;;
4112;SDS011;2070;51.042;7.056;2022-11-20T03:57:59;14.23;;;8.20;;
4112;SDS011;2070;51.042;7.056;2022-11-20T04:00:24;16.47;;;9.80;;
4112;SDS011;2070;51.042;7.056;2022-11-20T04:02:49;19.67;;;8.73;;
4112;SDS011;2070;51.042;7.056;2022-11-20T04:05:14;19.20;;;8.97;;
4112;SDS011;2070;51.042;7.056;2022-11-20T04:07:40;15.30;;;8.80;;
4112;SDS011;2070;51.042;7.056;2022-11-20T04:10:05;17.00;;;9.73;;
4112;SDS011;2070;51.042;7.056;2022-11-20T04:12:33;16.00;;;9.00;;
4112;SDS011;2070;51.042;7.056;2022-11-20T04:14:58;19.00;;;9.63;;
4112;SDS011;2070;51.042;7.056;2022-11-20T04:17:24;20.20;;;9.70;;
4112;SDS011;2070;51.042;7.056;2022-11-20T04:19:49;14.87;;;9.70;;
4112;SDS011;2070;51.042;7.056;2022-11-20T04:22:14;21.23;;;9.23;;
4112;SDS011;2070;51.042;7.056;2022-11-20T04:24:39;21.37;;;9.30;;
4112;SDS011;2070;51.042;7.056;2022-11-20T04:27:05;15.30;;;9.07;;
4112;SDS011;2070;51.042;7.056;2022-11-20T04:29:30;18.13;;;8.47;;
4112;SDS011;2070;51.042;7.056;2022-11-20T04:31:55;15.80;;;8.30;;
4112;SDS011;2070;51.042;7.056;2022-11-20T04:34:20;16.03;;;8.10;;
4112;SDS011;2070;51.042;7.056;2022-11-20T04:36:45;24.30;;;9.43;;
4112;SDS011;2070;51.042;7.056;2022-11-20T04:39:11;21.20;;;9.17;;
4112;SDS011;2070;51.042;7.056;2022-11-20T04:41:36;17.90;;;7.83;;
4112;SDS011;2070;51.042;7.056;2022-11-20T04:44:02;19.23;;;10.90;;
4112;SDS011;2070;51.042;7.056;2022-11-20T04:46:29;30.73;;;11.50;;
4112;SDS011;2070;51.042;7.056;2022-11-20T04:48:54;19.83;;;10.27;;
4112;SDS011;2070;51.042;7.056;2022-11-20T04:51:19;18.00;;;9.10;;
4112;SDS011;2070;51.042;7.056;2022-11-20T04:53:44;16.50;;;8.30;;
4112;SDS011;2070;51.042;7.056;2022-11-20T04:56:11;16.07;;;9.57;;
4112;SDS011;2070;51.042;7.056;2022-11-20T04:58:36;19.37;;;9.30;;
4112;SDS011;2070;51.042;7.056;2022-11-20T05:01:02;20.17;;;10.57;;
4112;SDS011;2070;51.042;7.056;2022-11-20T05:03:28;18.87;;;10.20;;
4112;SDS011;2070;51.042;7.056;2022-11-20T05:05:53;22.70;;;10.90;;
4112;SDS011;2070;51.042;7.056;2022-11-20T05:08:18;22.87;;;10.80;;
4112;SDS011;2070;51.042;7.056;2022-11-20T05:10:43;21.60;;;10.07;;
4112;SDS011;2070;51.042;7.056;2022-11-20T05:13:08;21.00;;;10.70;;
4112;SDS011;2070;51.042;7.056;2022-11-20T05:15:33;18.70;;;9.73;;
4112;SDS011;2070;51.042;7.056;2022-11-20T05:17:59;24.73;;;11.10;;
4112;SDS011;2070;51.042;7.056;2022-11-20T05:20:24;16.70;;;9.40;;
4112;SDS011;2070;51.042;7.056;2022-11-20T05:22:49;22.47;;;10.90;;
4112;SDS011;2070;51.042;7.056;2022-11-20T05:25:14;25.63;;;10.73;;
4112;SDS011;2070;51.042;7.056;2022-11-20T05:27:39;20.77;;;11.00;;
4112;SDS011;2070;51.042;7.056;2022-11-20T05:30:05;18.47;;;10.50;;
4112;SDS011;2070;51.042;7.056;2022-11-20T05:32:30;20.37;;;10.00;;
4112;SDS011;2070;51.042;7.056;2022-11-20T05:34:56;20.90;;;10.80;;
4112;SDS011;2070;51.042;7.056;2022-11-20T05:37:21;20.93;;;9.50;;
4112;SDS011;2070;51.042;7.056;2022-11-20T05:39:46;20.33;;;10.63;;
4112;SDS011;2070;51.042;7.056;2022-11-20T05:42:11;20.37;;;10.77;;
4112;SDS011;2070;51.042;7.056;2022-11-20T05:44:55;21.50;;;10.33;;
4112;SDS011;2070;51.042;7.056;2022-11-20T05:47:20;20.37;;;9.93;;
4112;SDS011;2070;51.042;7.056;2022-11-20T05:49:45;20.10;;;10.73;;
4112;SDS011;2070;51.042;7.056;2022-11-20T05:52:10;23.70;;;11.10;;
4112;SDS011;2070;51.042;7.056;2022-11-20T05:54:35;14.10;;;8.40;;
4112;SDS011;2070;51.042;7.056;2022-11-20T05:57:01;26.13;;;11.90;;
4112;SDS011;2070;51.042;7.056;2022-11-20T05:59:26;19.83;;;11.10;;
4112;SDS011;2070;51.042;7.056;2022-11-20T06:01:51;22.33;;;11.80;;
4112;SDS011;2070;51.042;7.056;2022-11-20T06:04:16;18.17;;;9.30;;
4112;SDS011;2070;51.042;7.056;2022-11-20T06:06:41;22.17;;;10.57;;
4112;SDS011;2070;51.042;7.056;2022-11-20T06:09:07;20.23;;;10.83;;
4112;SDS011;2070;51.042;7.056;2022-11-20T06:11:32;19.30;;;10.57;;
4112;SDS011;2070;51.042;7.056;2022-11-20T06:13:57;20.00;;;10.17;;
4112;SDS011;2070;51.042;7.056;2022-11-20T06:16:22;34.23;;;11.97;;
4112;SDS011;2070;51.042;7.056;2022-11-20T06:18:47;19.53;;;10.80;;
4112;SDS011;2070;51.042;7.056;2022-11-20T06:21:17;23.67;;;11.60;;
4112;SDS011;2070;51.042;7.056;2022-11-20T06:23:43;20.17;;;11.47;;
4112;SDS011;2070;51.042;7.056;2022-11-20T06:26:10;21.20;;;10.27;;
4112;SDS011;2070;51.042;7.056;2022-11-20T06:28:35;17.53;;;9.63;;
4112;SDS011;2070;51.042;7.056;2022-11-20T06:31:00;18.17;;;10.37;;
4112;SDS011;2070;51.042;7.056;2022-11-20T06:33:26;25.83;;;12.13;;
4112;SDS011;2070;51.042;7.056;2022-11-20T06:35:51;23.57;;;11.80;;
4112;SDS011;2070;51.042;7.056;2022-11-20T06:38:16;28.40;;;12.97;;
4112;SDS011;2070;51.042;7.056;2022-11-20T06:40:42;21.40;;;11.10;;
4112;SDS011;2070;51.042;7.056;2022-11-20T06:43:08;19.60;;;10.43;;
4112;SDS011;2070;51.042;7.056;2022-11-20T06:45:33;21.63;;;10.60;;
4112;SDS011;2070;51.042;7.056;2022-11-20T06:47:58;21.20;;;10.70;;
4112;SDS011;2070;51.042;7.056;2022-11-20T06:50:23;24.27;;;11.67;;
4112;SDS011;2070;51.042;7.056;2022-11-20T06:52:48;36.23;;;8.90;;
4112;SDS011;2070;51.042;7.056;2022-11-20T06:55:14;28.93;;;9.70;;
4112;SDS011;2070;51.042;7.056;2022-11-20T06:57:39;22.10;;;8.83;;
4112;SDS011;2070;51.042;7.056;2022-11-20T07:00:04;17.77;;;10.13;;
4112;SDS011;2070;51.042;7.056;2022-11-20T07:02:29;23.20;;;11.13;;
4112;SDS011;2070;51.042;7.056;2022-11-20T07:04:55;24.43;;;10.30;;
4112;SDS011;2070;51.042;7.056;2022-11-20T07:07:20;20.70;;;9.63;;
4112;SDS011;2070;51.042;7.056;2022-11-20T07:09:45;23.33;;;11.00;;
4112;SDS011;2070;51.042;7.056;2022-11-20T07:12:10;23.97;;;11.83;;
4112;SDS011;2070;51.042;7.056;2022-11-20T07:14:35;27.43;;;13.10;;
4112;SDS011;2070;51.042;7.056;2022-11-20T07:17:01;15.20;;;8.90;;
4112;SDS011;2070;51.042;7.056;2022-11-20T07:19:26;21.87;;;10.40;;
4112;SDS011;2070;51.042;7.056;2022-11-20T07:21:51;24.80;;;10.97;;
4112;SDS011;2070;51.042;7.056;2022-11-20T07:24:16;21.33;;;10.97;;
4112;SDS011;2070;51.042;7.056;2022-11-20T07:26:42;21.20;;;10.30;;
4112;SDS011;2070;51.042;7.056;2022-11-20T07:29:07;24.33;;;11.43;;
4112;SDS011;2070;51.042;7.056;2022-11-20T07:31:32;27.70;;;10.90;;
4112;SDS011;2070;51.042;7.056;2022-11-20T07:33:57;23.10;;;11.97;;
4112;SDS011;2070;51.042;7.056;2022-11-20T07:36:22;31.00;;;12.87;;
4112;SDS011;2070;51.042;7.056;2022-11-20T07:38:48;24.20;;;11.63;;
4112;SDS011;2070;51.042;7.056;2022-11-20T07:41:13;22.03;;;11.90;;
4112;SDS011;2070;51.042;7.056;2022-11-20T07:43:38;29.10;;;12.93;;
4112;SDS011;2070;51.042;7.056;2022-11-20T07:46:03;25.13;;;10.47;;
4112;SDS011;2070;51.042;7.056;2022-11-20T07:48:29;17.90;;;9.63;;
4112;SDS011;2070;51.042;7.056;2022-11-20T07:50:54;26.17;;;11.93;;
4112;SDS011;2070;51.042;7.056;2022-11-20T07:53:20;24.07;;;11.60;;
4112;SDS011;2070;51.042;7.056;2022-11-20T07:55:46;26.83;;;11.47;;
4112;SDS011;2070;51.042;7.056;2022-11-20T07:58:11;25.40;;;11.80;;
4112;SDS011;2070;51.042;7.056;2022-11-20T08:00:37;32.73;;;13.30;;
4112;SDS011;2070;51.042;7.056;2022-11-20T08:03:03;26.47;;;10.87;;
4112;SDS011;2070;51.042;7.056;2022-11-20T08:05:28;41.47;;;13.60;;
4112;SDS011;2070;51.042;7.056;2022-11-20T08:07:53;28.23;;;12.47;;
4112;SDS011;2070;51.042;7.056;2022-11-20T08:10:18;27.30;;;11.17;;
4112;SDS011;2070;51.042;7.056;2022-11-20T08:12:47;31.80;;;12.63;;
4112;SDS011;2070;51.042;7.056;2022-11-20T08:15:31;28.73;;;14.40;;
4112;SDS011;2070;51.042;7.056;2022-11-20T08:18:00;21.53;;;12.63;;
4112;SDS011;2070;51.042;7.056;2022-11-20T08:20:26;28.73;;;12.73;;
4112;SDS011;2070;51.042;7.056;2022-11-20T08:22:51;24.50;;;11.90;;
4112;SDS011;2070;51.042;7.056;2022-11-20T08:25:16;30.07;;;14.80;;
4112;SDS011;2070;51.042;7.056;2022-11-20T08:27:41;25.47;;;13.33;;
4112;SDS011;2070;51.042;7.056;2022-11-20T08:30:07;23.60;;;11.07;;
4112;SDS011;2070;51.042;7.056;2022-11-20T08:32:32;23.57;;;12.20;;
4112;SDS011;2070;51.042;7.056;2022-11-20T08:34:59;28.07;;;13.50;;
4112;SDS011;2070;51.042;7.056;2022-11-20T08:37:25;28.43;;;13.00;;
4112;SDS011;2070;51.042;7.056;2022-11-20T08:39:50;43.50;;;17.97;;
4112;SDS011;2070;51.042;7.056;2022-11-20T08:42:15;22.93;;;12.20;;
4112;SDS011;2070;51.042;7.056;2022-11-20T08:44:40;25.90;;;11.80;;
4112;SDS011;2070;51.042;7.056;2022-11-20T08:47:05;24.37;;;11.20;;
4112;SDS011;2070;51.042;7.056;2022-11-20T08:49:31;16.90;;;10.13;;
4112;SDS011;2070;51.042;7.056;2022-11-20T08:51:56;28.33;;;12.97;;
4112;SDS011;2070;51.042;7.056;2022-11-20T08:54:21;27.13;;;13.03;;
4112;SDS011;2070;51.042;7.056;2022-11-20T08:56:47;23.43;;;12.10;;
4112;SDS011;2070;51.042;7.056;2022-11-20T08:59:12;25.77;;;12.57;;
4112;SDS011;2070;51.042;7.056;2022-11-20T09:01:38;23.73;;;12.67;;
4112;SDS011;2070;51.042;7.056;2022-11-20T09:04:03;23.20;;;12.50;;
4112;SDS011;2070;51.042;7.056;2022-11-20T09:06:29;21.30;;;12.27;;
4112;SDS011;2070;51.042;7.056;2022-11-20T09:08:55;27.43;;;11.80;;
4112;SDS011;2070;51.042;7.056;2022-11-20T09:11:20;21.80;;;11.30;;
4112;SDS011;2070;51.042;7.056;2022-11-20T09:13:45;24.03;;;11.30;;
4112;SDS011;2070;51.042;7.056;2022-11-20T09:16:11;25.63;;;11.70;;
4112;SDS011;2070;51.042;7.056;2022-11-20T09:18:36;23.23;;;11.20;;
4112;SDS011;2070;51.042;7.056;2022-11-20T09:21:03;30.63;;;12.40;;
4112;SDS011;2070;51.042;7.056;2022-11-20T09:23:31;22.60;;;10.70;;
4112;SDS011;2070;51.042;7.056;2022-11-20T09:25:56;36.00;;;14.93;;
4112;SDS011;2070;51.042;7.056;2022-11-20T09:28:24;25.43;;;12.13;;
4112;SDS011;2070;51.042;7.056;2022-11-20T09:30:49;24.47;;;11.50;;
4112;SDS011;2070;51.042;7.056;2022-11-20T09:33:15;25.37;;;12.87;;
4112;SDS011;2070;51.042;7.056;2022-11-20T09:35:40;23.57;;;12.70;;
4112;SDS011;2070;51.042;7.056;2022-11-20T09:38:05;26.80;;;13.03;;
4112;SDS011;2070;51.042;7.056;2022-11-20T09:40:31;23.43;;;12.10;;
4112;SDS011;2070;51.042;7.056;2022-11-20T09:43:05;25.93;;;12.03;;
4112;SDS011;2070;51.042;7.056;2022-11-20T09:45:49;34.77;;;14.63;;
4112;SDS011;2070;51.042;7.056;2022-11-20T09:56:00;21.80;;;11.17;;
4112;SDS011;2070;51.042;7.056;2022-11-20T09:58:31;18.57;;;10.77;;
4112;SDS011;2070;51.042;7.056;2022-11-20T10:01:00;21.60;;;11.27;;
4112;SDS011;2070;51.042;7.056;2022-11-20T10:03:30;15.93;;;9.23;;
4112;SDS011;2070;51.042;7.056;2022-11-20T10:05:59;21.00;;;9.50;;
4112;SDS011;2070;51.042;7.056;2022-11-20T10:08:28;18.03;;;10.33;;
4112;SDS011;2070;51.042;7.056;2022-11-20T10:11:16;19.00;;;9.10;;
4112;SDS011;2070;51.042;7.056;2022-11-20T10:19:16;17.83;;;10.27;;
4112;SDS011;2070;51.042;7.056;2022-11-20T10:30:06;19.30;;;10.70;;
4112;SDS011;2070;51.042;7.056;2022-11-20T10:32:36;56.57;;;10.63;;
4112;SDS011;2070;51.042;7.056;2022-11-20T10:37:28;20.50;;;10.73;;
4112;SDS011;2070;51.042;7.056;2022-11-20T10:39:56;17.97;;;10.33;;
4112;SDS011;2070;51.042;7.056;2022-11-20T10:42:30;16.43;;;9.07;;
4112;SDS011;2070;51.042;7.056;2022-11-20T10:45:02;23.33;;;10.53;;
4112;SDS011;2070;51.042;7.056;2022-11-20T10:47:34;21.60;;;10.20;;
4112;SDS011;2070;51.042;7.056;2022-11-20T10:50:04;22.70;;;11.80;;
4112;SDS011;2070;51.042;7.056;2022-11-20T10:55:24;20.90;;;10.70;;
4112;SDS011;2070;51.042;7.056;2022-11-20T11:00:15;21.90;;;9.63;;
4112;SDS011;2070;51.042;7.056;2022-11-20T11:07:55;13.60;;;8.10;;
4112;SDS011;2070;51.042;7.056;2022-11-20T11:10:28;17.50;;;9.50;;
4112;SDS011;2070;51.042;7.056;2022-11-20T11:12:57;22.23;;;10.97;;
4112;SDS011;2070;51.042;7.056;2022-11-20T11:15:35;18.27;;;9.87;;
4112;SDS011;2070;51.042;7.056;2022-11-20T11:18:01;25.27;;;10.30;;
4112;SDS011;2070;51.042;7.056;2022-11-20T11:20:26;17.70;;;9.37;;
4112;SDS011;2070;51.042;7.056;2022-11-20T11:22:53;23.93;;;10.10;;
4112;SDS011;2070;51.042;7.056;2022-11-20T11:25:21;24.37;;;11.37;;
4112;SDS011;2070;51.042;7.056;2022-11-20T11:27:47;21.33;;;10.07;;
4112;SDS011;2070;51.042;7.056;2022-11-20T11:30:17;23.77;;;10.87;;
4112;SDS011;2070;51.042;7.056;2022-11-20T11:32:42;27.40;;;10.67;;
4112;SDS011;2070;51.042;7.056;2022-11-20T11:37:48;20.43;;;10.47;;
4112;SDS011;2070;51.042;7.056;2022-11-20T11:40:13;24.57;;;12.00;;
4112;SDS011;2070;51.042;7.056;2022-11-20T11:42:42;26.37;;;12.13;;
4112;SDS011;2070;51.042;7.056;2022-11-20T11:45:11;20.07;;;10.60;;
4112;SDS011;2070;51.042;7.056;2022-11-20T11:55:32;30.70;;;12.50;;
4112;SDS011;2070;51.042;7.056;2022-11-20T11:58:04;33.57;;;13.77;;
4112;SDS011;2070;51.042;7.056;2022-11-20T12:00:33;20.60;;;11.10;;
4112;SDS011;2070;51.042;7.056;2022-11-20T12:03:03;23.97;;;11.57;;
4112;SDS011;2070;51.042;7.056;2022-11-20T12:10:49;19.13;;;10.90;;
4112;SDS011;2070;51.042;7.056;2022-11-20T12:15:41;29.58;;;15.45;;
4112;SDS011;2070;51.042;7.056;2022-11-20T12:18:10;27.87;;;11.83;;
4112;SDS011;2070;51.042;7.056;2022-11-20T12:20:43;23.90;;;12.30;;
4112;SDS011;2070;51.042;7.056;2022-11-20T12:25:36;29.53;;;12.70;;
4112;SDS011;2070;51.042;7.056;2022-11-20T12:30:48;30.57;;;15.27;;
4112;SDS011;2070;51.042;7.056;2022-11-20T12:33:19;25.90;;;11.93;;
4112;SDS011;2070;51.042;7.056;2022-11-20T12:38:54;29.63;;;12.03;;
4112;SDS011;2070;51.042;7.056;2022-11-20T13:02:26;29.83;;;11.67;;
4112;SDS011;2070;51.042;7.056;2022-11-20T13:07:26;23.80;;;12.00;;
4112;SDS011;2070;51.042;7.056;2022-11-20T13:09:52;32.10;;;13.93;;
4112;SDS011;2070;51.042;7.056;2022-11-20T13:17:19;24.83;;;11.80;;
4112;SDS011;2070;51.042;7.056;2022-11-20T13:19:56;38.23;;;13.13;;
4112;SDS011;2070;51.042;7.056;2022-11-20T13:22:27;22.90;;;13.17;;
4112;SDS011;2070;51.042;7.056;2022-11-20T13:24:52;27.90;;;13.87;;
4112;SDS011;2070;51.042;7.056;2022-11-20T13:27:18;23.60;;;12.17;;
4112;SDS011;2070;51.042;7.056;2022-11-20T13:29:45;26.27;;;13.10;;
4112;SDS011;2070;51.042;7.056;2022-11-20T13:32:18;24.93;;;11.87;;
4112;SDS011;2070;51.042;7.056;2022-11-20T13:35:03;24.43;;;13.13;;
4112;SDS011;2070;51.042;7.056;2022-11-20T13:40:04;31.27;;;13.43;;
4112;SDS011;2070;51.042;7.056;2022-11-20T13:42:30;26.33;;;12.10;;
4112;SDS011;2070;51.042;7.056;2022-11-20T13:44:55;24.53;;;12.77;;
4112;SDS011;2070;51.042;7.056;2022-11-20T13:47:26;25.93;;;11.83;;
4112;SDS011;2070;51.042;7.056;2022-11-20T13:49:52;27.87;;;13.17;;
4112;SDS011;2070;51.042;7.056;2022-11-20T13:52:39;29.13;;;12.93;;
4112;SDS011;2070;51.042;7.056;2022-11-20T13:55:18;22.60;;;12.23;;
4112;SDS011;2070;51.042;7.056;2022-11-20T14:00:17;17.77;;;10.30;;
4112;SDS011;2070;51.042;7.056;2022-11-20T14:02:43;25.80;;;11.00;;
4112;SDS011;2070;51.042;7.056;2022-11-20T14:05:17;23.93;;;12.37;;
4112;SDS011;2070;51.042;7.056;2022-11-20T14:07:42;27.07;;;12.77;;
4112;SDS011;2070;51.042;7.056;2022-11-20T14:10:22;22.47;;;11.07;;
4112;SDS011;2070;51.042;7.056;2022-11-20T14:12:47;24.40;;;10.73;;
4112;SDS011;2070;51.042;7.056;2022-11-20T14:15:23;19.07;;;9.90;;
4112;SDS011;2070;51.042;7.056;2022-11-20T14:17:49;20.33;;;10.27;;
4112;SDS011;2070;51.042;7.056;2022-11-20T14:20:14;22.50;;;11.57;;
4112;SDS011;2070;51.042;7.056;2022-11-20T14:22:47;22.33;;;11.23;;
4112;SDS011;2070;51.042;7.056;2022-11-20T14:27:42;28.73;;;11.63;;
4112;SDS011;2070;51.042;7.056;2022-11-20T14:30:21;27.20;;;12.43;;
4112;SDS011;2070;51.042;7.056;2022-11-20T14:32:46;24.03;;;10.53;;
4112;SDS011;2070;51.042;7.056;2022-11-20T14:35:25;27.70;;;12.27;;
4112;SDS011;2070;51.042;7.056;2022-11-20T14:37:51;21.67;;;11.23;;
4112;SDS011;2070;51.042;7.056;2022-11-20T14:40:27;24.33;;;12.67;;
4112;SDS011;2070;51.042;7.056;2022-11-20T14:42:52;25.67;;;12.07;;
4112;SDS011;2070;51.042;7.056;2022-11-20T14:45:18;22.20;;;11.77;;
4112;SDS011;2070;51.042;7.056;2022-11-20T14:47:44;28.70;;;12.10;;
4112;SDS011;2070;51.042;7.056;2022-11-20T14:50:14;22.57;;;11.77;;
4112;SDS011;2070;51.042;7.056;2022-11-20T14:52:49;27.27;;;12.40;;
4112;SDS011;2070;51.042;7.056;2022-11-20T14:55:14;24.00;;;11.10;;
4112;SDS011;2070;51.042;7.056;2022-11-20T14:57:53;27.00;;;11.90;;
4112;SDS011;2070;51.042;7.056;2022-11-20T15:00:20;24.13;;;12.10;;
4112;SDS011;2070;51.042;7.056;2022-11-20T15:02:47;27.67;;;12.07;;
4112;SDS011;2070;51.042;7.056;2022-11-20T15:05:12;22.03;;;11.27;;
4112;SDS011;2070;51.042;7.056;2022-11-20T15:07:39;26.33;;;12.63;;
4112;SDS011;2070;51.042;7.056;2022-11-20T15:10:24;21.10;;;10.63;;
4112;SDS011;2070;51.042;7.056;2022-11-20T15:15:17;25.05;;;11.05;;
4112;SDS011;2070;51.042;7.056;2022-11-20T15:17:42;24.57;;;10.80;;
4112;SDS011;2070;51.042;7.056;2022-11-20T15:20:11;18.30;;;10.20;;
4112;SDS011;2070;51.042;7.056;2022-11-20T15:22:38;28.13;;;12.03;;
4112;SDS011;2070;51.042;7.056;2022-11-20T15:25:08;20.63;;;10.83;;
4112;SDS011;2070;51.042;7.056;2022-11-20T15:27:33;20.07;;;8.70;;
4112;SDS011;2070;51.042;7.056;2022-11-20T15:29:58;19.63;;;10.60;;
4112;SDS011;2070;51.042;7.056;2022-11-20T15:32:23;19.20;;;10.00;;
4112;SDS011;2070;51.042;7.056;2022-11-20T15:34:48;27.47;;;12.60;;
4112;SDS011;2070;51.042;7.056;2022-11-20T15:37:13;21.30;;;11.77;;
4112;SDS011;2070;51.042;7.056;2022-11-20T15:39:39;29.43;;;13.27;;
4112;SDS011;2070;51.042;7.056;2022-11-20T15:42:04;21.47;;;11.20;;
4112;SDS011;2070;51.042;7.056;2022-11-20T15:44:29;22.37;;;11.37;;
4112;SDS011;2070;51.042;7.056;2022-11-20T15:46:54;21.93;;;12.23;;
4112;SDS011;2070;51.042;7.056;2022-11-20T15:49:20;28.40;;;12.80;;
4112;SDS011;2070;51.042;7.056;2022-11-20T15:51:47;26.60;;;13.20;;
4112;SDS011;2070;51.042;7.056;2022-11-20T15:54:14;29.30;;;13.57;;
4112;SDS011;2070;51.042;7.056;2022-11-20T15:56:40;30.73;;;13.10;;
4112;SDS011;2070;51.042;7.056;2022-11-20T15:59:05;29.63;;;12.90;;
4112;SDS011;2070;51.042;7.056;2022-11-20T16:01:30;26.13;;;11.23;;
4112;SDS011;2070;51.042;7.056;2022-11-20T16:03:56;26.43;;;11.50;;
4112;SDS011;2070;51.042;7.056;2022-11-20T16:06:21;36.90;;;17.57;;
4112;SDS011;2070;51.042;7.056;2022-11-20T16:08:46;34.53;;;13.37;;
4112;SDS011;2070;51.042;7.056;2022-11-20T16:11:12;29.40;;;13.30;;
4112;SDS011;2070;51.042;7.056;2022-11-20T16:13:37;25.23;;;10.50;;
4112;SDS011;2070;51.042;7.056;2022-11-20T16:16:22;25.90;;;11.97;;
4112;SDS011;2070;51.042;7.056;2022-11-20T16:18:48;22.70;;;11.30;;
4112;SDS011;2070;51.042;7.056;2022-11-20T16:21:14;31.20;;;12.70;;
4112;SDS011;2070;51.042;7.056;2022-11-20T16:23:39;28.93;;;11.20;;
4112;SDS011;2070;51.042;7.056;2022-11-20T16:26:17;28.13;;;12.87;;
4112;SDS011;2070;51.042;7.056;2022-11-20T16:28:43;21.90;;;11.83;;
4112;SDS011;2070;51.042;7.056;2022-11-20T16:31:13;32.93;;;12.77;;
4112;SDS011;2070;51.042;7.056;2022-11-20T16:33:38;27.10;;;11.57;;
4112;SDS011;2070;51.042;7.056;2022-11-20T16:36:11;25.00;;;12.17;;
4112;SDS011;2070;51.042;7.056;2022-11-20T16:38:36;20.60;;;9.90;;
4112;SDS011;2070;51.042;7.056;2022-11-20T16:41:01;20.13;;;10.43;;